Aviation Digital Data Service (ADDS)

Output produced by TAFs form (0751 UTC 23 April 2018)
found at http://aviationweather.gov/adds/tafs/
 
METAR text: RJFM 230700Z 15006KT 9999 FEW020 BKN025 BKN030 22/18 Q1015
Conditions at: RJFM (MIYAZAKI AIRPORT, JP) observed 0700 UTC 23 April 2018
Temperature: 22.0°C (72°F)
Dewpoint: 18.0°C (64°F) [RH = 78%]
Pressure (altimeter): 29.97 inches Hg (1015.0 mb)
Winds: from the SSE (150 degrees) at 7 MPH (6 knots; 3.1 m/s)
Visibility: 6 or more miles (10+ km)
Ceiling: 2500 feet AGL
Clouds: few clouds at 2000 feet AGL
broken clouds at 2500 feet AGL
broken clouds at 3000 feet AGL
Weather: no significant weather observed at this time

Forecast for: RJFM (MIYAZAKI AIRPORT, JP)
Text: TAF RJFM 230506Z 2306/2412 15010KT 9999 FEW020 BKN030
Forecast period: 0600 to 1000 UTC 23 April 2018
Forecast type: FROM: standard forecast or significant change
Winds: from the SSE (150 degrees) at 12 MPH (10 knots; 5.2 m/s)
Visibility: 6 or more miles (10+ km)
Ceiling: 3000 feet AGL
Clouds: few clouds at 2000 feet AGL
broken clouds at 3000 feet AGL
Weather: no significant weather forecast for this period
Forecast for: RJFM (MIYAZAKI AIRPORT, JP)
Text: TAF RJFM 230506Z 2306/2412 15010KT 9999 FEW020 BKN030
Forecast period: 0600 to 1000 UTC 23 April 2018
Forecast type: FROM: standard forecast or significant change
Winds: from the SSE (150 degrees) at 12 MPH (10 knots; 5.2 m/s)
Visibility: 6 or more miles (10+ km)
Ceiling: 3000 feet AGL
Clouds: few clouds at 2000 feet AGL
broken clouds at 3000 feet AGL
Weather: no significant weather forecast for this period
Forecast for: RJFM (MIYAZAKI AIRPORT, JP)
Text: TAF RJFM 230506Z 2306/2412 15010KT 9999 FEW020 BKN030
Forecast period: 1000 UTC 23 April 2018 to 1200 UTC 24 April 2018
Forecast type: BECOMING: Conditions expected to become as follows by 1200 UTC 23 April 2018
Winds: from the S (190 degrees) at 6 MPH (5 knots; 2.6 m/s)
Visibility: 6 or more miles (10+ km)
Ceiling: 3000 feet AGL
Clouds: few clouds at 2000 feet AGL
broken clouds at 3000 feet AGL
Weather: no significant weather forecast for this period
Forecast for: RJFM (MIYAZAKI AIRPORT, JP)
Text: TAF RJFM 230506Z 2306/2412 15010KT 9999 FEW020 BKN030
Forecast period: 1000 UTC 23 April 2018 to 1200 UTC 24 April 2018
Forecast type: BECOMING: Conditions expected to become as follows by 1200 UTC 23 April 2018
Winds: from the S (190 degrees) at 6 MPH (5 knots; 2.6 m/s)
Visibility: 6 or more miles (10+ km)
Ceiling: 3000 feet AGL
Clouds: few clouds at 2000 feet AGL
broken clouds at 3000 feet AGL
Weather: no significant weather forecast for this period
Forecast for: RJFM (MIYAZAKI AIRPORT, JP)
Text: TAF RJFM 230506Z 2306/2412 15010KT 9999 FEW020 BKN030
Forecast period: 1800 UTC 23 April 2018 to 0300 UTC 24 April 2018
Forecast type: TEMPORARY: The following changes expected for less than half the time period
Visibility: 2.49 miles (4.01 km)
Weather: -SHRA BR  (light rain showers, mist)
Forecast for: RJFM (MIYAZAKI AIRPORT, JP)
Text: TAF RJFM 230506Z 2306/2412 15010KT 9999 FEW020 BKN030
Forecast period: 1800 UTC 23 April 2018 to 0300 UTC 24 April 2018
Forecast type: TEMPORARY: The following changes expected for less than half the time period
Visibility: 2.49 miles (4.01 km)
Weather: -SHRA BR  (light rain showers, mist)
Forecast for: RJFM (MIYAZAKI AIRPORT, JP)
Text: TAF RJFM 230506Z 2306/2412 15010KT 9999 FEW020 BKN030
Forecast period: 0300 to 1200 UTC 24 April 2018
Forecast type: TEMPORARY: The following changes expected for less than half the time period
Visibility: 1.86 miles (2.99 km)
Weather: SHRA BR  (rain showers, mist)
Forecast for: RJFM (MIYAZAKI AIRPORT, JP)
Text: TAF RJFM 230506Z 2306/2412 15010KT 9999 FEW020 BKN030
Forecast period: 0300 to 1200 UTC 24 April 2018
Forecast type: TEMPORARY: The following changes expected for less than half the time period
Visibility: 1.86 miles (2.99 km)
Weather: SHRA BR  (rain showers, mist)